createdAt,value
2017-10-18T00:01:05.857Z,84.36
2017-10-18T00:02:17.778Z,85.21
2017-10-18T00:03:30.352Z,85.31
2017-10-18T00:04:42.868Z,85.31
2017-10-18T00:05:54.806Z,85.5
2017-10-18T00:07:07.361Z,85.31
2017-10-18T00:08:19.606Z,85.41
2017-10-18T00:09:31.526Z,85.5
2017-10-18T00:10:43.470Z,85.31
2017-10-18T00:11:55.717Z,84.92
2017-10-18T00:13:08.286Z,85.17
2017-10-18T00:14:20.558Z,85.21
2017-10-18T00:15:33.129Z,84.92
2017-10-18T00:16:45.375Z,84.07
2017-10-18T00:17:57.939Z,83.36
2017-10-18T00:19:10.196Z,83.84
2017-10-18T00:20:22.761Z,84.31
2017-10-18T00:21:35.006Z,84.92
2017-10-18T00:22:47.578Z,84.88
2017-10-18T00:24:00.148Z,84.98
2017-10-18T00:25:12.396Z,84.98
2017-10-18T00:26:24.638Z,84.98
2017-10-18T00:27:37.211Z,84.79
2017-10-18T00:28:49.463Z,85.17
2017-10-18T00:30:01.394Z,84.98
2017-10-18T00:31:13.321Z,84.88
2017-10-18T00:32:25.893Z,84.98
2017-10-18T00:33:38.464Z,84.6
2017-10-18T00:34:51.034Z,85.27
2017-10-18T00:36:03.281Z,84.5
2017-10-18T00:37:15.125Z,85.17
2017-10-18T00:38:27.389Z,85.17
2017-10-18T00:39:39.941Z,85.27
2017-10-18T00:40:52.511Z,84.31
2017-10-18T00:42:05.085Z,84.03
2017-10-18T00:43:17.353Z,84.6
2017-10-18T00:44:29.591Z,84.31
2017-10-18T00:45:42.145Z,84.41
2017-10-18T00:46:54.391Z,84.6
2017-10-18T00:48:06.653Z,84.6
2017-10-18T00:49:19.212Z,84.41
2017-10-18T00:50:31.778Z,84.41
2017-10-18T00:51:44.340Z,84.22
2017-10-18T00:52:56.586Z,84.6
2017-10-18T00:54:08.845Z,84.6
2017-10-18T00:55:21.410Z,85.08
2017-10-18T00:56:33.331Z,84.5
2017-10-18T00:57:45.575Z,85.08
2017-10-18T00:58:57.848Z,84.98
2017-10-18T01:00:10.417Z,84.79
2017-10-18T01:01:22.663Z,84.98
2017-10-18T01:02:35.234Z,85.08
2017-10-18T01:03:47.806Z,85.27
2017-10-18T01:05:00.375Z,85.17
2017-10-18T01:06:12.298Z,84.69
2017-10-18T01:07:24.866Z,84.88
2017-10-18T01:08:37.111Z,85.08
2017-10-18T01:09:49.608Z,84.6
2017-10-18T01:11:02.178Z,85.08
2017-10-18T01:12:14.753Z,85.08
2017-10-18T01:13:27.337Z,84.88
2017-10-18T01:14:39.917Z,84.41
2017-10-18T01:15:52.489Z,84.41
2017-10-18T01:17:05.059Z,84.69
2017-10-18T01:18:17.300Z,84.69
2017-10-18T01:19:29.550Z,85.08
2017-10-18T01:20:41.793Z,84.79
2017-10-18T01:21:53.740Z,82.79
2017-10-18T01:23:06.309Z,81.84
2017-10-18T01:24:18.887Z,81.84
2017-10-18T01:25:31.125Z,82.5
2017-10-18T01:26:43.714Z,82.69
2017-10-18T01:27:55.319Z,82.79
2017-10-18T01:29:07.889Z,82.79
2017-10-18T01:30:20.152Z,83.45
2017-10-18T01:31:32.954Z,82.79
2017-10-18T01:32:44.878Z,82.79
2017-10-18T01:33:57.121Z,83.26
2017-10-18T01:35:09.384Z,83.65
2017-10-18T01:36:21.940Z,83.84
2017-10-18T01:37:34.207Z,83.65
2017-10-18T01:38:46.778Z,83.84
2017-10-18T01:39:59.350Z,83.55
2017-10-18T01:41:11.595Z,84.31
2017-10-18T01:42:23.820Z,83.74
2017-10-18T01:43:36.061Z,83.45
2017-10-18T01:44:48.307Z,83.36
2017-10-18T01:46:00.876Z,83.65
2017-10-18T01:47:12.498Z,83.74
2017-10-18T01:48:24.743Z,83.93
2017-10-18T01:49:36.688Z,83.74
2017-10-18T01:50:48.934Z,83.61
2017-10-18T01:52:01.181Z,83.7
2017-10-18T01:53:13.677Z,83.84
2017-10-18T01:54:26.246Z,83.7
2017-10-18T01:55:38.493Z,84.17
2017-10-18T01:56:51.062Z,83.89
2017-10-18T01:58:03.317Z,83.8
2017-10-18T01:59:15.881Z,83.89
2017-10-18T02:00:28.125Z,84.17
2017-10-18T02:01:40.699Z,83.8
2017-10-18T02:02:53.266Z,83.8
2017-10-18T02:04:05.836Z,84.36
2017-10-18T02:05:18.408Z,84.46
2017-10-18T02:06:30.978Z,84.46
2017-10-18T02:07:43.573Z,84.36
2017-10-18T02:08:55.819Z,84.36
2017-10-18T02:10:08.390Z,84.46
2017-10-18T02:11:20.637Z,84.65
2017-10-18T02:12:32.880Z,84.65
2017-10-18T02:13:45.126Z,84.36
2017-10-18T02:14:57.700Z,83.8
2017-10-18T02:16:10.267Z,84.56
2017-10-18T02:17:22.842Z,84.46
2017-10-18T02:18:35.410Z,84.36
2017-10-18T02:19:47.979Z,84.56
2017-10-18T02:21:00.227Z,84.46
2017-10-18T02:22:12.797Z,84.36
2017-10-18T02:23:25.401Z,83.8
2017-10-18T02:24:37.663Z,83.51
2017-10-18T02:25:49.586Z,83.51
2017-10-18T02:27:02.154Z,82.84
2017-10-18T02:28:14.402Z,83.03
2017-10-18T02:29:26.346Z,83.8
2017-10-18T02:30:38.591Z,83.7
2017-10-18T02:31:51.162Z,83.89
2017-10-18T02:33:03.109Z,83.41
2017-10-18T02:34:15.670Z,83.89
2017-10-18T02:35:27.898Z,83.61
2017-10-18T02:36:39.837Z,83.61
2017-10-18T02:37:52.408Z,83.8
2017-10-18T02:39:04.961Z,83.7
2017-10-18T02:40:17.206Z,84.17
2017-10-18T02:41:29.778Z,83.89
2017-10-18T02:42:42.346Z,83.8
2017-10-18T02:43:54.611Z,83.41
2017-10-18T02:45:07.189Z,83.7
2017-10-18T02:46:19.776Z,83.61
2017-10-18T02:47:32.349Z,83.7
2017-10-18T02:48:44.899Z,83.41
2017-10-18T02:49:57.139Z,83.51
2017-10-18T02:51:09.692Z,83.8
2017-10-18T02:52:21.943Z,83.41
2017-10-18T02:53:34.759Z,83.13
2017-10-18T02:54:47.329Z,82.65
2017-10-18T02:55:59.899Z,82.93
2017-10-18T02:57:12.145Z,83.03
2017-10-18T02:58:24.991Z,82.93
2017-10-18T02:59:37.589Z,81.89
2017-10-18T03:00:50.158Z,81.03
2017-10-18T03:02:02.720Z,80.46
2017-10-18T03:03:14.972Z,81.23
2017-10-18T03:04:27.221Z,80.94
2017-10-18T03:05:39.465Z,81.13
2017-10-18T03:06:51.710Z,81.41
2017-10-18T03:08:03.934Z,81.6
2017-10-18T03:09:15.853Z,81.79
2017-10-18T03:10:28.098Z,82.18
2017-10-18T03:11:40.344Z,81.7
2017-10-18T03:12:52.914Z,81.23
2017-10-18T03:14:05.484Z,81.79
2017-10-18T03:15:17.730Z,81.79
2017-10-18T03:16:30.302Z,81.41
2017-10-18T03:17:42.871Z,81.51
2017-10-18T03:18:55.416Z,81.03
2017-10-18T03:20:08.304Z,81.6
2017-10-18T03:21:20.550Z,81.51
2017-10-18T03:22:33.104Z,81.41
2017-10-18T03:23:45.675Z,81.7
2017-10-18T03:24:58.245Z,81.32
2017-10-18T03:26:10.490Z,80.94
2017-10-18T03:27:22.737Z,80.55
2017-10-18T03:28:35.007Z,79.8
2017-10-18T03:29:47.595Z,79.7
2017-10-18T03:31:00.424Z,79.51
2017-10-18T03:32:12.695Z,79.22
2017-10-18T03:33:25.267Z,79.03
2017-10-18T03:34:37.835Z,79.13
2017-10-18T03:35:50.406Z,78.65
2017-10-18T03:37:02.976Z,77.7
2017-10-18T03:38:15.546Z,77.42
2017-10-18T03:39:28.117Z,78.17
2017-10-18T03:40:40.688Z,78.37
2017-10-18T03:41:53.508Z,78.75
2017-10-18T03:43:06.079Z,78.46
2017-10-18T03:44:18.650Z,78.75
2017-10-18T03:45:31.223Z,78.56
2017-10-18T03:46:43.784Z,79.03
2017-10-18T03:47:56.362Z,79.32
2017-10-18T03:49:08.309Z,78.78
2017-10-18T03:50:20.555Z,79.22
2017-10-18T03:51:32.799Z,79.64
2017-10-18T03:52:45.394Z,78.59
2017-10-18T03:53:57.991Z,78.56
2017-10-18T03:55:10.562Z,78.65
2017-10-18T03:56:22.485Z,78.59
2017-10-18T03:57:35.055Z,78.85
2017-10-18T03:58:47.622Z,78.69
2017-10-18T04:00:00.194Z,79.13
2017-10-18T04:01:12.756Z,79.03
2017-10-18T04:02:25.009Z,79.07
2017-10-18T04:03:37.212Z,79.07
2017-10-18T04:04:49.452Z,79.27
2017-10-18T04:06:01.372Z,79.51
2017-10-18T04:07:13.948Z,79.46
2017-10-18T04:08:26.513Z,79.41
2017-10-18T04:09:38.783Z,79.46
2017-10-18T04:10:51.355Z,79.8
2017-10-18T04:12:03.602Z,79.55
2017-10-18T04:13:15.213Z,79.7
2017-10-18T04:14:27.766Z,80.12
2017-10-18T04:15:40.338Z,79.46
2017-10-18T04:16:52.907Z,79.74
2017-10-18T04:18:05.504Z,79.51
2017-10-18T04:19:17.776Z,79.89
2017-10-18T04:20:30.045Z,79.89
2017-10-18T04:21:42.291Z,79.99
2017-10-18T04:22:54.540Z,79.99
2017-10-18T04:24:06.782Z,79.8
2017-10-18T04:25:19.370Z,80.55
2017-10-18T04:26:31.923Z,80.08
2017-10-18T04:27:44.493Z,80.27
2017-10-18T04:28:57.040Z,80.27
2017-10-18T04:30:09.609Z,79.99
2017-10-18T04:31:22.184Z,80.08
2017-10-18T04:32:34.750Z,79.89
2017-10-18T04:33:46.673Z,79.99
2017-10-18T04:34:58.918Z,79.7
2017-10-18T04:36:11.490Z,80.27
2017-10-18T04:37:23.733Z,79.99
2017-10-18T04:38:35.979Z,80.46
2017-10-18T04:39:48.225Z,80.27
2017-10-18T04:41:00.489Z,80.27
2017-10-18T04:42:12.768Z,79.99
2017-10-18T04:43:25.343Z,80.55
2017-10-18T04:44:37.907Z,80.27
2017-10-18T04:45:50.154Z,80.36
2017-10-18T04:47:02.745Z,80.36
2017-10-18T04:48:15.320Z,80.65
2017-10-18T04:49:27.893Z,80.27
2017-10-18T04:50:39.811Z,80.75
2017-10-18T04:51:52.056Z,80.65
2017-10-18T04:53:04.626Z,80.55
2017-10-18T04:54:16.873Z,80.36
2017-10-18T04:55:29.442Z,80.65
2017-10-18T04:56:41.714Z,80.27
2017-10-18T04:57:54.534Z,80.36
2017-10-18T04:59:06.456Z,80.84
2017-10-18T05:00:19.043Z,80.84
2017-10-18T05:01:30.972Z,80.94
2017-10-18T05:02:43.542Z,80.94
2017-10-18T05:03:55.786Z,79.99
2017-10-18T05:05:08.384Z,80.65
2017-10-18T05:06:20.629Z,79.99
2017-10-18T05:07:32.874Z,80.94
2017-10-18T05:08:45.446Z,81.41
2017-10-18T05:09:58.017Z,80.65
2017-10-18T05:11:09.962Z,81.98
2017-10-18T05:12:22.207Z,80.65
2017-10-18T05:13:34.454Z,80.94
2017-10-18T05:14:47.023Z,80.94
2017-10-18T05:15:59.288Z,80.84
2017-10-18T05:17:11.240Z,80.84
2017-10-18T05:18:23.489Z,80.36
2017-10-18T05:19:36.007Z,80.65
2017-10-18T05:20:48.576Z,80.75
2017-10-18T05:22:00.851Z,80.65
2017-10-18T05:23:13.119Z,80.36
2017-10-18T05:24:25.343Z,80.33
2017-10-18T05:25:37.902Z,79.99
2017-10-18T05:26:49.847Z,81.18
2017-10-18T05:28:02.426Z,80.94
2017-10-18T05:29:14.997Z,80.94
2017-10-18T05:30:27.259Z,80.52
2017-10-18T05:31:39.812Z,80.65
2017-10-18T05:32:52.392Z,80.71
2017-10-18T05:34:04.954Z,80.42
2017-10-18T05:35:16.874Z,79.94
2017-10-18T05:36:29.462Z,79.85
2017-10-18T05:37:42.042Z,79.8
2017-10-18T05:38:54.612Z,80.33
2017-10-18T05:40:06.857Z,80.42
2017-10-18T05:41:19.678Z,80.52
2017-10-18T05:42:31.924Z,80.84
2017-10-18T05:43:44.208Z,80.36
2017-10-18T05:44:56.811Z,80.36
2017-10-18T05:46:09.385Z,80.42
2017-10-18T05:47:21.957Z,79.99
2017-10-18T05:48:34.203Z,79.89
2017-10-18T05:49:46.748Z,79.89
2017-10-18T05:50:58.993Z,79.8
2017-10-18T05:52:10.939Z,78.56
2017-10-18T05:53:23.185Z,77.22
2017-10-18T05:54:35.434Z,77.61
2017-10-18T05:55:48.000Z,77.61
2017-10-18T05:57:00.572Z,77.22
2017-10-18T05:58:12.842Z,77.32
2017-10-18T05:59:25.087Z,77.22
2017-10-18T06:00:37.658Z,77.03
2017-10-18T06:01:49.903Z,77.13
2017-10-18T06:03:02.175Z,76.94
2017-10-18T06:04:14.446Z,76.94
2017-10-18T06:05:26.691Z,76.94
2017-10-18T06:06:39.262Z,76.75
2017-10-18T06:07:51.832Z,76.65
2017-10-18T06:09:03.448Z,76.27
2017-10-18T06:10:16.023Z,75.79
2017-10-18T06:11:28.268Z,75.89
2017-10-18T06:12:40.843Z,75.7
2017-10-18T06:13:53.411Z,75.89
2017-10-18T06:15:05.674Z,75.89
2017-10-18T06:16:18.252Z,75.6
2017-10-18T06:17:30.498Z,74.46
2017-10-18T06:18:42.744Z,73.8
2017-10-18T06:19:55.318Z,73.89
2017-10-18T06:21:07.558Z,73.32
2017-10-18T06:22:20.130Z,73.17
2017-10-18T06:23:32.376Z,73.22
2017-10-18T06:24:44.622Z,73.36
2017-10-18T06:25:56.543Z,73.22
2017-10-18T06:27:08.797Z,73.26
2017-10-18T06:28:21.359Z,72.78
2017-10-18T06:29:33.929Z,73.07
2017-10-18T06:30:46.501Z,72.88
2017-10-18T06:31:59.071Z,72.21
2017-10-18T06:33:11.316Z,71.55
2017-10-18T06:34:23.582Z,71.55
2017-10-18T06:35:36.154Z,70.97
2017-10-18T06:36:48.703Z,70.97
2017-10-18T06:38:00.966Z,71.07
2017-10-18T06:39:13.524Z,70.97
2017-10-18T06:40:26.090Z,70.97
2017-10-18T06:41:38.011Z,70.12
2017-10-18T06:42:50.582Z,69.45
2017-10-18T06:44:02.826Z,69.58
2017-10-18T06:45:15.397Z,68.91
2017-10-18T06:46:27.969Z,68.24
2017-10-18T06:47:40.555Z,68.05
2017-10-18T06:48:53.114Z,68.24
2017-10-18T06:50:05.055Z,68.53
2017-10-18T06:51:17.627Z,68.44
2017-10-18T06:52:29.873Z,68.44
2017-10-18T06:53:42.441Z,68.63
2017-10-18T06:54:54.041Z,68.72
2017-10-18T06:56:06.283Z,68.44
2017-10-18T06:57:18.778Z,68.24
2017-10-18T06:58:31.027Z,68.72
2017-10-18T06:59:43.272Z,68.53
2017-10-18T07:00:55.840Z,68.72
2017-10-18T07:02:08.412Z,68.72
2017-10-18T07:03:20.984Z,69.14
2017-10-18T07:04:33.571Z,69.04
2017-10-18T07:05:46.125Z,69.43
2017-10-18T07:06:58.694Z,69.23
2017-10-18T07:08:11.264Z,69.71
2017-10-18T07:09:23.861Z,69.81
2017-10-18T07:10:36.431Z,69.9
2017-10-18T07:11:49.026Z,69.71
2017-10-18T07:13:00.965Z,69.71
2017-10-18T07:14:13.545Z,69.52
2017-10-18T07:15:25.852Z,69.52
2017-10-18T07:16:38.427Z,69.81
2017-10-18T07:17:51.005Z,70
2017-10-18T07:19:03.193Z,70.86
2017-10-18T07:20:15.445Z,71.23
2017-10-18T07:21:28.017Z,71.04
2017-10-18T07:22:39.963Z,71.04
2017-10-18T07:23:52.533Z,70.86
2017-10-18T07:25:04.804Z,71.04
2017-10-18T07:26:17.050Z,71.52
2017-10-18T07:27:29.620Z,72.09
2017-10-18T07:28:41.867Z,72.28
2017-10-18T07:29:54.445Z,73.43
2017-10-18T07:31:06.708Z,74.19
2017-10-18T07:32:19.279Z,74.1
2017-10-18T07:33:31.848Z,73.94
2017-10-18T07:34:44.094Z,74.01
2017-10-18T07:35:56.666Z,73.43
2017-10-18T07:37:09.235Z,72.96
2017-10-18T07:38:21.156Z,72.67
2017-10-18T07:39:33.729Z,72.48
2017-10-18T07:40:46.551Z,72.38
2017-10-18T07:41:59.118Z,72.19
2017-10-18T07:43:11.364Z,71.94
2017-10-18T07:44:23.934Z,71.94
2017-10-18T07:45:36.196Z,72.23
2017-10-18T07:46:48.750Z,72.42
2017-10-18T07:48:01.325Z,71.94
2017-10-18T07:49:13.891Z,72.42
2017-10-18T07:50:26.462Z,72.51
2017-10-18T07:51:38.406Z,72.23
2017-10-18T07:52:50.978Z,72.13
2017-10-18T07:54:03.225Z,71.84
2017-10-18T07:55:15.795Z,71.84
2017-10-18T07:56:27.720Z,71.75
2017-10-18T07:57:39.961Z,71.66
2017-10-18T07:58:52.206Z,71.66
2017-10-18T08:00:04.157Z,71.94
2017-10-18T08:01:16.401Z,71.84
2017-10-18T08:02:28.594Z,71.66
2017-10-18T08:03:40.839Z,70.98
2017-10-18T08:04:52.439Z,71.66
2017-10-18T08:06:04.985Z,71.18
2017-10-18T08:07:17.551Z,71.12
2017-10-18T08:08:30.122Z,70.83
2017-10-18T08:09:42.685Z,71.21
2017-10-18T08:10:54.954Z,71.02
2017-10-18T08:12:07.201Z,70.73
2017-10-18T08:13:19.980Z,70.36
2017-10-18T08:14:32.548Z,70.45
2017-10-18T08:15:44.795Z,71.02
2017-10-18T08:16:57.041Z,70.92
2017-10-18T08:18:09.612Z,70.73
2017-10-18T08:19:21.862Z,70.73
2017-10-18T08:20:33.799Z,70.36
2017-10-18T08:21:46.024Z,70.36
2017-10-18T08:22:58.596Z,69.97
2017-10-18T08:24:11.165Z,70.01
2017-10-18T08:25:23.736Z,70.39
2017-10-18T08:26:36.335Z,70.29
2017-10-18T08:27:48.902Z,70.1
2017-10-18T08:29:01.148Z,70.01
2017-10-18T08:30:13.067Z,70.1
2017-10-18T08:31:25.332Z,70.39
2017-10-18T08:32:37.908Z,70.01
2017-10-18T08:33:50.156Z,70.01
2017-10-18T08:35:02.751Z,70.01
2017-10-18T08:36:15.326Z,70.9
2017-10-18T08:37:27.568Z,70.39
2017-10-18T08:38:39.813Z,70.42
2017-10-18T08:39:51.743Z,70.42
2017-10-18T08:41:03.984Z,70.33
2017-10-18T08:42:15.900Z,70.33
2017-10-18T08:43:28.496Z,71.09
2017-10-18T08:44:40.741Z,73
2017-10-18T08:45:52.987Z,75.01
2017-10-18T08:47:05.232Z,74.24
2017-10-18T08:48:17.496Z,74.05
2017-10-18T08:49:29.427Z,73.67
2017-10-18T08:50:41.694Z,73.29
2017-10-18T08:51:54.270Z,73
2017-10-18T08:53:06.836Z,72.75
2017-10-18T08:54:19.110Z,74.19
2017-10-18T08:55:31.677Z,75.24
2017-10-18T08:56:43.949Z,74.57
2017-10-18T08:57:56.193Z,74.95
2017-10-18T08:59:08.456Z,74.66
2017-10-18T09:00:20.753Z,74.38
2017-10-18T09:01:33.322Z,73.8
2017-10-18T09:02:45.551Z,74.19
2017-10-18T09:03:58.113Z,74.48
2017-10-18T09:05:10.393Z,74.19
2017-10-18T09:06:21.687Z,74.38
2017-10-18T09:07:33.627Z,74.48
2017-10-18T09:08:46.201Z,74.22
2017-10-18T09:09:58.453Z,74.99
2017-10-18T09:11:10.373Z,75.85
2017-10-18T09:12:22.295Z,75.18
2017-10-18T09:13:34.213Z,75.47
2017-10-18T09:14:46.134Z,75.56
2017-10-18T09:15:58.704Z,75.27
2017-10-18T09:17:10.324Z,75.18
2017-10-18T09:18:22.819Z,77
2017-10-18T09:19:35.416Z,76.9
2017-10-18T09:20:47.677Z,78.53
2017-10-18T09:21:59.932Z,78.14
2017-10-18T09:23:11.878Z,78.72
2017-10-18T09:24:24.465Z,79.68
2017-10-18T09:25:36.720Z,80
2017-10-18T09:26:49.290Z,79.62
2017-10-18T09:28:01.539Z,80.67
2017-10-18T09:29:14.107Z,80.58
2017-10-18T09:30:26.383Z,79.91
2017-10-18T09:31:38.314Z,80
2017-10-18T09:32:50.893Z,80.1
2017-10-18T09:34:03.462Z,79.62
2017-10-18T09:35:15.084Z,80.38
2017-10-18T09:36:27.010Z,80.67
2017-10-18T09:37:39.276Z,82.43
2017-10-18T09:38:51.844Z,83.26
2017-10-18T09:40:03.771Z,83.87
2017-10-18T09:41:16.038Z,83.78
2017-10-18T09:42:28.608Z,84.74
2017-10-18T09:43:41.177Z,84.16
2017-10-18T09:44:53.425Z,84.35
2017-10-18T09:46:06.002Z,83.87
2017-10-18T09:47:18.566Z,85.02
2017-10-18T09:48:31.136Z,84.83
2017-10-18T09:49:43.707Z,89.23
2017-10-18T09:50:56.302Z,87.03
2017-10-18T09:52:08.248Z,85.98
2017-10-18T09:53:20.817Z,85.41
2017-10-18T09:54:33.430Z,85.6
2017-10-18T09:55:45.692Z,85.12
2017-10-18T09:56:58.257Z,88.28
2017-10-18T09:58:10.228Z,97.18
2017-10-18T09:59:22.489Z,96.89
2017-10-18T10:00:34.743Z,96.99
2017-10-18T10:01:46.988Z,98.96
2017-10-18T10:02:59.252Z,99.99
2017-10-18T10:04:11.821Z,98.76
2017-10-18T10:05:24.100Z,98.1
2017-10-18T10:06:36.688Z,98.67
2017-10-18T10:07:48.941Z,99.99
2017-10-18T10:09:01.513Z,98.57
2017-10-18T10:10:14.083Z,98.1
2017-10-18T10:11:26.346Z,98.38
2017-10-18T10:12:38.899Z,98.38
2017-10-18T10:13:51.472Z,99.34
2017-10-18T10:15:04.042Z,98.76
2017-10-18T10:16:16.286Z,98.67
2017-10-18T10:17:28.232Z,99.99
2017-10-18T10:18:40.827Z,99.99
2017-10-18T10:19:53.397Z,99.99
2017-10-18T10:21:05.970Z,99.99
2017-10-18T10:22:18.539Z,99.99
2017-10-18T10:23:31.109Z,99.99
2017-10-18T10:24:43.733Z,99.99
2017-10-18T10:25:56.301Z,99.99
2017-10-18T10:27:08.564Z,99.99
2017-10-18T10:28:20.818Z,99.99
2017-10-18T10:29:33.411Z,99.99
2017-10-18T10:30:45.657Z,99.99
2017-10-18T10:31:58.222Z,99.99
2017-10-18T10:33:10.492Z,99.99
2017-10-18T10:34:23.064Z,99.99
2017-10-18T10:35:35.641Z,99.99
2017-10-18T10:36:48.204Z,99.99
2017-10-18T10:38:00.482Z,99.99
2017-10-18T10:39:13.054Z,99.99
2017-10-18T10:40:25.298Z,99.99
2017-10-18T10:41:37.545Z,99.99
2017-10-18T10:42:50.118Z,99.99
2017-10-18T10:44:02.686Z,99.99
2017-10-18T10:45:15.283Z,99.99
2017-10-18T10:46:27.852Z,99.99
2017-10-18T10:47:39.774Z,99.99
2017-10-18T10:48:51.693Z,99.99
2017-10-18T10:50:03.941Z,99.99
2017-10-18T10:51:16.201Z,99.99
2017-10-18T10:52:28.779Z,99.99
2017-10-18T10:53:41.026Z,99.99
2017-10-18T10:54:53.606Z,99.99
2017-10-18T10:56:05.223Z,99.99
2017-10-18T10:57:17.164Z,99.99
2017-10-18T10:58:29.435Z,99.99
2017-10-18T10:59:42.004Z,99.99
2017-10-18T11:00:53.926Z,99.99
2017-10-18T11:02:06.513Z,99.99
2017-10-18T11:03:18.440Z,99.99
2017-10-18T11:04:30.687Z,99.99
2017-10-18T11:05:42.933Z,99.99
2017-10-18T11:06:55.504Z,99.99
2017-10-18T11:08:07.773Z,99.99
2017-10-18T11:09:19.696Z,99.99
2017-10-18T11:10:32.264Z,99.99
2017-10-18T11:11:44.503Z,99.99
2017-10-18T11:12:57.082Z,99.99
2017-10-18T11:14:09.653Z,99.99
2017-10-18T11:15:21.897Z,99.99
2017-10-18T11:16:34.469Z,99.99
2017-10-18T11:17:47.038Z,99.99
2017-10-18T11:18:59.626Z,99.99
2017-10-18T11:20:11.922Z,99.99
2017-10-18T11:21:24.501Z,99.99
2017-10-18T11:22:36.421Z,99.99
2017-10-18T11:23:48.673Z,99.99
2017-10-18T11:25:01.258Z,99.99
2017-10-18T11:26:13.487Z,99.99
2017-10-18T11:27:26.053Z,99.99
2017-10-18T11:28:38.299Z,99.99
2017-10-18T11:29:50.544Z,99.99
2017-10-18T11:31:02.791Z,99.99
2017-10-18T11:32:15.037Z,99.99
2017-10-18T11:33:27.608Z,99.99
2017-10-18T11:34:40.178Z,99.99
2017-10-18T11:35:52.748Z,99.99
2017-10-18T11:37:04.671Z,99.99
2017-10-18T11:38:16.932Z,99.99
2017-10-18T11:39:29.760Z,99.99
2017-10-18T11:40:41.707Z,99.99
2017-10-18T11:41:53.952Z,99.99
2017-10-18T11:43:06.528Z,99.99
2017-10-18T11:44:18.463Z,99.99
2017-10-18T11:45:30.414Z,99.99
2017-10-18T11:46:42.339Z,99.99
2017-10-18T11:47:54.272Z,99.99
2017-10-18T11:49:06.526Z,99.99
2017-10-18T11:50:18.777Z,99.99
2017-10-18T11:51:31.349Z,99.99
2017-10-18T11:52:43.288Z,99.99
2017-10-18T11:53:55.874Z,99.99
2017-10-18T11:55:07.809Z,99.99
2017-10-18T11:56:20.067Z,99.99
2017-10-18T11:57:32.646Z,99.99
2017-10-18T11:58:45.217Z,99.99
2017-10-18T11:59:57.805Z,99.99
2017-10-18T12:01:10.385Z,99.99
2017-10-18T12:02:22.946Z,99.99
2017-10-18T12:03:35.198Z,99.99
2017-10-18T12:04:47.449Z,99.99
2017-10-18T12:06:00.031Z,99.99
2017-10-18T12:07:12.286Z,99.99
2017-10-18T12:08:24.232Z,99.99
2017-10-18T12:09:36.477Z,99.99
2017-10-18T12:10:49.048Z,99.99
2017-10-18T12:12:01.619Z,99.99
2017-10-18T12:13:13.881Z,99.99
2017-10-18T12:14:26.459Z,99.99
2017-10-18T12:15:38.706Z,99.99
2017-10-18T12:16:51.276Z,99.99
2017-10-18T12:18:03.847Z,99.99
2017-10-18T12:19:16.442Z,99.99
2017-10-18T12:20:28.714Z,99.99
2017-10-18T12:21:41.284Z,99.99
2017-10-18T12:22:53.854Z,99.99
2017-10-18T12:24:06.424Z,99.99
2017-10-18T12:25:18.695Z,99.99
2017-10-18T12:26:30.668Z,99.99
2017-10-18T12:27:42.916Z,99.99
2017-10-18T12:28:54.857Z,99.99
2017-10-18T12:30:07.427Z,99.99
2017-10-18T12:31:20.066Z,99.99
2017-10-18T12:32:32.620Z,99.99
2017-10-18T12:33:45.233Z,99.99
2017-10-18T12:34:57.803Z,99.99
2017-10-18T12:36:09.734Z,99.99
2017-10-18T12:37:22.301Z,99.99
2017-10-18T12:38:34.877Z,99.99
2017-10-18T12:39:46.810Z,99.99
2017-10-18T12:40:59.056Z,99.99
2017-10-18T12:42:11.658Z,99.99
2017-10-18T12:43:24.255Z,99.99
2017-10-18T12:44:36.193Z,99.99
2017-10-18T12:45:48.763Z,99.99
2017-10-18T12:47:01.042Z,99.99
2017-10-18T12:48:12.962Z,99.99
2017-10-18T12:49:25.540Z,99.99
2017-10-18T12:50:37.804Z,99.99
2017-10-18T12:51:50.052Z,99.99
2017-10-18T12:53:01.975Z,99.99
2017-10-18T12:54:13.908Z,99.99
2017-10-18T12:55:26.186Z,99.99
2017-10-18T12:56:38.434Z,99.99
2017-10-18T12:57:51.024Z,99.99
2017-10-18T12:59:03.602Z,99.99
2017-10-18T13:00:15.862Z,99.99
2017-10-18T13:01:28.457Z,99.99
2017-10-18T13:02:41.036Z,99.99
2017-10-18T13:03:53.264Z,99.99
2017-10-18T13:05:05.577Z,99.99
2017-10-18T13:06:17.847Z,99.99
2017-10-18T13:07:30.121Z,99.99
2017-10-18T13:08:42.688Z,99.99
2017-10-18T13:09:54.610Z,99.99
2017-10-18T13:11:06.555Z,99.99
2017-10-18T13:12:18.476Z,99.99
2017-10-18T13:13:30.723Z,99.99
2017-10-18T13:14:42.990Z,99.99
2017-10-18T13:15:55.246Z,99.99
2017-10-18T13:17:07.187Z,99.99
2017-10-18T13:18:19.755Z,99.99
2017-10-18T13:19:31.999Z,99.99
2017-10-18T13:20:44.588Z,99.99
2017-10-18T13:21:56.533Z,99.99
2017-10-18T13:23:08.786Z,99.99
2017-10-18T13:24:21.057Z,99.99
2017-10-18T13:25:33.320Z,99.99
2017-10-18T13:26:45.573Z,99.99
2017-10-18T13:27:58.147Z,99.99
2017-10-18T13:29:10.713Z,99.99
2017-10-18T13:30:23.286Z,99.99
2017-10-18T13:31:35.533Z,99.99
2017-10-18T13:32:48.103Z,99.99
2017-10-18T13:34:00.665Z,99.99
2017-10-18T13:35:12.918Z,99.06
2017-10-18T13:36:25.188Z,98.96
2017-10-18T13:37:37.439Z,98.77
2017-10-18T13:38:50.008Z,99.54
2017-10-18T13:40:02.576Z,99.99
2017-10-18T13:41:14.524Z,99.99
2017-10-18T13:42:27.109Z,99.99
2017-10-18T13:43:39.387Z,99.99
2017-10-18T13:44:51.336Z,99.99
2017-10-18T13:46:03.621Z,99.99
2017-10-18T13:47:15.549Z,99.73
2017-10-18T13:48:27.813Z,98.58
2017-10-18T13:49:40.383Z,98.58
2017-10-18T13:50:52.954Z,98.86
2017-10-18T13:52:05.533Z,98.86
2017-10-18T13:53:18.095Z,99.25
2017-10-18T13:54:30.353Z,99.99
2017-10-18T13:55:42.612Z,98.77
2017-10-18T13:56:54.565Z,99.25
2017-10-18T13:58:06.860Z,99.99
2017-10-18T13:59:19.111Z,99.63
2017-10-18T14:00:31.944Z,98.77
2017-10-18T14:01:43.877Z,99.44
2017-10-18T14:02:56.461Z,99.44
2017-10-18T14:04:09.058Z,99.99
2017-10-18T14:05:21.627Z,99.99
2017-10-18T14:06:33.880Z,99.99
2017-10-18T14:07:45.824Z,99.99
2017-10-18T14:08:58.401Z,99.99
2017-10-18T14:10:10.692Z,99.99
2017-10-18T14:11:23.264Z,99.99
2017-10-18T14:12:35.833Z,99.99
2017-10-18T14:13:48.080Z,99.99
2017-10-18T14:15:00.343Z,99.99
2017-10-18T14:16:12.620Z,99.99
2017-10-18T14:17:25.195Z,99.99
2017-10-18T14:18:37.461Z,99.99
2017-10-18T14:19:49.724Z,99.99
2017-10-18T14:21:01.671Z,99.99
2017-10-18T14:22:13.948Z,99.99
2017-10-18T14:23:25.895Z,99.99
2017-10-18T14:24:38.165Z,99.99
2017-10-18T14:25:50.403Z,99.99
2017-10-18T14:27:02.974Z,99.99
2017-10-18T14:28:15.571Z,99.99
2017-10-18T14:29:28.151Z,99.99
2017-10-18T14:30:40.743Z,99.99
2017-10-18T14:31:52.989Z,99.99
2017-10-18T14:33:05.563Z,99.99
2017-10-18T14:34:18.148Z,99.99
2017-10-18T14:35:30.718Z,99.99
2017-10-18T14:36:43.275Z,99.99
2017-10-18T14:37:55.534Z,99.99
2017-10-18T14:39:07.788Z,99.99
2017-10-18T14:40:20.358Z,99.99
2017-10-18T14:41:32.604Z,99.99
2017-10-18T14:42:45.175Z,99.99
2017-10-18T14:43:57.445Z,99.99
2017-10-18T14:45:10.033Z,99.99
2017-10-18T14:46:22.287Z,99.99
2017-10-18T14:47:34.574Z,99.99
2017-10-18T14:48:47.151Z,99.99
2017-10-18T14:49:58.797Z,99.99
2017-10-18T14:51:11.061Z,99.99
2017-10-18T14:52:23.313Z,99.99
2017-10-18T14:53:35.237Z,99.99
2017-10-18T14:54:47.506Z,99.99
2017-10-18T14:56:00.094Z,99.99
2017-10-18T14:57:12.348Z,99.99
2017-10-18T14:58:24.936Z,99.99
2017-10-18T14:59:37.182Z,99.99
2017-10-18T15:00:49.664Z,99.99
2017-10-18T15:02:02.261Z,99.99
2017-10-18T15:03:14.851Z,99.99
2017-10-18T15:04:27.438Z,99.99
2017-10-18T15:05:39.691Z,99.99
2017-10-18T15:06:52.262Z,99.99
2017-10-18T15:08:04.834Z,99.99
2017-10-18T15:09:17.082Z,99.99
2017-10-18T15:10:29.342Z,99.99
2017-10-18T15:11:41.913Z,99.99
2017-10-18T15:12:54.491Z,99.99
2017-10-18T15:14:07.062Z,99.99
2017-10-18T15:15:19.631Z,99.99
2017-10-18T15:16:31.879Z,99.99
2017-10-18T15:17:44.140Z,99.99
2017-10-18T15:18:56.418Z,99.99
2017-10-18T15:20:08.664Z,99.99
2017-10-18T15:21:20.937Z,99.99
2017-10-18T15:22:33.506Z,99.99
2017-10-18T15:23:46.094Z,99.99
2017-10-18T15:24:58.348Z,99.99
2017-10-18T15:26:10.918Z,99.99
2017-10-18T15:27:23.489Z,99.99
2017-10-18T15:28:35.737Z,99.99
2017-10-18T15:29:48.305Z,99.99
2017-10-18T15:31:00.251Z,99.99
2017-10-18T15:32:12.821Z,99.99
2017-10-18T15:33:25.393Z,99.99
2017-10-18T15:34:37.315Z,99.99
2017-10-18T15:35:49.249Z,99.99